sensor_id;sensor_type;location;lat;lon;timestamp;P1;durP1;ratioP1;P2;durP2;ratioP2
46491;SDS011;32206;51.446;6.792;2022-12-19T00:03:43;33.95;;;17.17;;
46491;SDS011;32206;51.446;6.792;2022-12-19T00:06:09;37.08;;;18.10;;
46491;SDS011;32206;51.446;6.792;2022-12-19T00:08:35;35.33;;;17.73;;
46491;SDS011;32206;51.446;6.792;2022-12-19T00:11:01;39.15;;;17.58;;
46491;SDS011;32206;51.446;6.792;2022-12-19T00:13:28;31.83;;;15.68;;
46491;SDS011;32206;51.446;6.792;2022-12-19T00:15:58;32.70;;;17.73;;
46491;SDS011;32206;51.446;6.792;2022-12-19T00:18:25;35.15;;;16.80;;
46491;SDS011;32206;51.446;6.792;2022-12-19T00:20:55;35.17;;;17.48;;
46491;SDS011;32206;51.446;6.792;2022-12-19T00:23:24;35.92;;;17.90;;
46491;SDS011;32206;51.446;6.792;2022-12-19T00:25:50;37.58;;;17.30;;
46491;SDS011;32206;51.446;6.792;2022-12-19T00:28:15;39.33;;;17.35;;
46491;SDS011;32206;51.446;6.792;2022-12-19T00:30:41;33.42;;;16.70;;
46491;SDS011;32206;51.446;6.792;2022-12-19T00:33:07;34.80;;;16.80;;
46491;SDS011;32206;51.446;6.792;2022-12-19T00:35:32;33.78;;;16.70;;
46491;SDS011;32206;51.446;6.792;2022-12-19T00:37:58;35.38;;;17.35;;
46491;SDS011;32206;51.446;6.792;2022-12-19T00:40:23;31.05;;;16.60;;
46491;SDS011;32206;51.446;6.792;2022-12-19T00:42:49;34.65;;;16.88;;
46491;SDS011;32206;51.446;6.792;2022-12-19T00:45:15;36.83;;;17.98;;
46491;SDS011;32206;51.446;6.792;2022-12-19T00:47:40;36.28;;;18.90;;
46491;SDS011;32206;51.446;6.792;2022-12-19T00:50:06;28.90;;;15.63;;
46491;SDS011;32206;51.446;6.792;2022-12-19T00:52:32;28.95;;;15.32;;
46491;SDS011;32206;51.446;6.792;2022-12-19T00:54:57;33.80;;;16.42;;
46491;SDS011;32206;51.446;6.792;2022-12-19T00:57:23;30.48;;;15.07;;
46491;SDS011;32206;51.446;6.792;2022-12-19T00:59:49;28.25;;;15.38;;
46491;SDS011;32206;51.446;6.792;2022-12-19T01:02:14;35.38;;;17.85;;
46491;SDS011;32206;51.446;6.792;2022-12-19T01:04:40;30.42;;;16.35;;
46491;SDS011;32206;51.446;6.792;2022-12-19T01:07:05;33.15;;;17.05;;
46491;SDS011;32206;51.446;6.792;2022-12-19T01:09:32;36.75;;;17.75;;
46491;SDS011;32206;51.446;6.792;2022-12-19T01:11:59;33.67;;;16.85;;
46491;SDS011;32206;51.446;6.792;2022-12-19T01:14:44;30.77;;;16.58;;
46491;SDS011;32206;51.446;6.792;2022-12-19T01:17:09;35.45;;;16.58;;
46491;SDS011;32206;51.446;6.792;2022-12-19T01:19:35;35.78;;;18.13;;
46491;SDS011;32206;51.446;6.792;2022-12-19T01:22:01;33.63;;;18.20;;
46491;SDS011;32206;51.446;6.792;2022-12-19T01:24:26;33.30;;;16.75;;
46491;SDS011;32206;51.446;6.792;2022-12-19T01:26:52;35.15;;;18.15;;
46491;SDS011;32206;51.446;6.792;2022-12-19T01:29:17;36.67;;;18.00;;
46491;SDS011;32206;51.446;6.792;2022-12-19T01:31:43;33.50;;;17.75;;
46491;SDS011;32206;51.446;6.792;2022-12-19T01:34:09;32.75;;;17.65;;
46491;SDS011;32206;51.446;6.792;2022-12-19T01:36:34;39.03;;;18.30;;
46491;SDS011;32206;51.446;6.792;2022-12-19T01:39:00;31.58;;;16.65;;
46491;SDS011;32206;51.446;6.792;2022-12-19T01:41:25;36.45;;;17.58;;
46491;SDS011;32206;51.446;6.792;2022-12-19T01:43:53;35.40;;;18.10;;
46491;SDS011;32206;51.446;6.792;2022-12-19T01:46:34;31.38;;;17.23;;
46491;SDS011;32206;51.446;6.792;2022-12-19T01:49:14;42.20;;;18.08;;
46491;SDS011;32206;51.446;6.792;2022-12-19T01:51:55;37.90;;;18.92;;
46491;SDS011;32206;51.446;6.792;2022-12-19T01:54:24;33.75;;;17.40;;
46491;SDS011;32206;51.446;6.792;2022-12-19T01:56:57;35.78;;;17.95;;
46491;SDS011;32206;51.446;6.792;2022-12-19T01:59:28;33.40;;;16.95;;
46491;SDS011;32206;51.446;6.792;2022-12-19T02:01:59;43.33;;;17.55;;
46491;SDS011;32206;51.446;6.792;2022-12-19T02:04:34;34.35;;;17.73;;
46491;SDS011;32206;51.446;6.792;2022-12-19T02:07:02;34.58;;;18.15;;
46491;SDS011;32206;51.446;6.792;2022-12-19T02:09:29;36.03;;;17.33;;
46491;SDS011;32206;51.446;6.792;2022-12-19T02:11:57;33.33;;;18.15;;
46491;SDS011;32206;51.446;6.792;2022-12-19T02:14:23;35.17;;;17.88;;
46491;SDS011;32206;51.446;6.792;2022-12-19T02:27:27;34.75;;;16.98;;
46491;SDS011;32206;51.446;6.792;2022-12-19T02:30:30;34.15;;;15.68;;
46491;SDS011;32206;51.446;6.792;2022-12-19T02:35:49;29.83;;;15.80;;
46491;SDS011;32206;51.446;6.792;2022-12-19T02:38:19;30.60;;;15.75;;
46491;SDS011;32206;51.446;6.792;2022-12-19T02:44:09;28.55;;;15.43;;
46491;SDS011;32206;51.446;6.792;2022-12-19T02:46:41;26.38;;;14.52;;
46491;SDS011;32206;51.446;6.792;2022-12-19T02:49:08;29.33;;;14.95;;
46491;SDS011;32206;51.446;6.792;2022-12-19T02:51:35;29.13;;;16.20;;
46491;SDS011;32206;51.446;6.792;2022-12-19T02:54:01;28.05;;;15.10;;
46491;SDS011;32206;51.446;6.792;2022-12-19T02:56:31;27.75;;;15.05;;
46491;SDS011;32206;51.446;6.792;2022-12-19T03:01:47;26.15;;;14.10;;
46491;SDS011;32206;51.446;6.792;2022-12-19T03:07:20;28.45;;;15.45;;
46491;SDS011;32206;51.446;6.792;2022-12-19T03:13:18;28.45;;;14.88;;
46491;SDS011;32206;51.446;6.792;2022-12-19T03:15:45;27.15;;;15.25;;
46491;SDS011;32206;51.446;6.792;2022-12-19T03:18:11;28.48;;;14.88;;
46491;SDS011;32206;51.446;6.792;2022-12-19T03:23:37;26.80;;;14.98;;
46491;SDS011;32206;51.446;6.792;2022-12-19T03:26:05;25.83;;;14.90;;
46491;SDS011;32206;51.446;6.792;2022-12-19T03:31:08;31.25;;;16.00;;
46491;SDS011;32206;51.446;6.792;2022-12-19T03:33:37;28.67;;;15.88;;
46491;SDS011;32206;51.446;6.792;2022-12-19T03:36:05;27.15;;;14.77;;
46491;SDS011;32206;51.446;6.792;2022-12-19T03:38:34;31.02;;;15.88;;
46491;SDS011;32206;51.446;6.792;2022-12-19T03:41:02;30.88;;;14.65;;
46491;SDS011;32206;51.446;6.792;2022-12-19T03:43:31;29.48;;;15.43;;
46491;SDS011;32206;51.446;6.792;2022-12-19T03:46:21;27.05;;;16.70;;
46491;SDS011;32206;51.446;6.792;2022-12-19T03:48:47;35.00;;;15.82;;
46491;SDS011;32206;51.446;6.792;2022-12-19T03:56:17;30.10;;;15.57;;
46491;SDS011;32206;51.446;6.792;2022-12-19T03:58:51;26.75;;;14.05;;
46491;SDS011;32206;51.446;6.792;2022-12-19T04:01:22;28.98;;;15.90;;
46491;SDS011;32206;51.446;6.792;2022-12-19T04:03:50;29.10;;;16.42;;
46491;SDS011;32206;51.446;6.792;2022-12-19T04:06:16;27.00;;;15.38;;
46491;SDS011;32206;51.446;6.792;2022-12-19T04:08:42;31.40;;;14.80;;
46491;SDS011;32206;51.446;6.792;2022-12-19T04:11:09;27.55;;;14.50;;
46491;SDS011;32206;51.446;6.792;2022-12-19T04:13:41;29.23;;;16.23;;
46491;SDS011;32206;51.446;6.792;2022-12-19T04:16:18;26.92;;;15.98;;
46491;SDS011;32206;51.446;6.792;2022-12-19T04:19:03;29.25;;;15.85;;
46491;SDS011;32206;51.446;6.792;2022-12-19T04:21:44;31.25;;;16.05;;
46491;SDS011;32206;51.446;6.792;2022-12-19T04:24:18;30.02;;;16.02;;
46491;SDS011;32206;51.446;6.792;2022-12-19T04:26:50;32.17;;;16.33;;
46491;SDS011;32206;51.446;6.792;2022-12-19T04:29:18;32.83;;;15.77;;
46491;SDS011;32206;51.446;6.792;2022-12-19T04:31:43;33.05;;;18.65;;
46491;SDS011;32206;51.446;6.792;2022-12-19T04:34:10;30.38;;;16.73;;
46491;SDS011;32206;51.446;6.792;2022-12-19T04:36:35;33.72;;;17.05;;
46491;SDS011;32206;51.446;6.792;2022-12-19T04:39:01;31.33;;;16.98;;
46491;SDS011;32206;51.446;6.792;2022-12-19T04:41:27;29.48;;;15.85;;
46491;SDS011;32206;51.446;6.792;2022-12-19T04:43:52;32.95;;;18.08;;
46491;SDS011;32206;51.446;6.792;2022-12-19T04:46:18;31.33;;;17.40;;
46491;SDS011;32206;51.446;6.792;2022-12-19T04:48:44;33.67;;;17.30;;
46491;SDS011;32206;51.446;6.792;2022-12-19T04:51:10;36.60;;;18.05;;
46491;SDS011;32206;51.446;6.792;2022-12-19T04:53:35;33.08;;;17.33;;
46491;SDS011;32206;51.446;6.792;2022-12-19T04:56:01;29.67;;;16.52;;
46491;SDS011;32206;51.446;6.792;2022-12-19T04:58:29;35.22;;;18.48;;
46491;SDS011;32206;51.446;6.792;2022-12-19T05:00:58;35.65;;;17.20;;
46491;SDS011;32206;51.446;6.792;2022-12-19T05:03:25;39.30;;;20.52;;
46491;SDS011;32206;51.446;6.792;2022-12-19T05:05:50;36.88;;;19.25;;
46491;SDS011;32206;51.446;6.792;2022-12-19T05:08:16;39.28;;;20.73;;
46491;SDS011;32206;51.446;6.792;2022-12-19T05:10:41;37.58;;;19.30;;
46491;SDS011;32206;51.446;6.792;2022-12-19T05:13:07;39.22;;;19.75;;
46491;SDS011;32206;51.446;6.792;2022-12-19T05:15:33;43.15;;;20.02;;
46491;SDS011;32206;51.446;6.792;2022-12-19T05:17:58;41.40;;;20.40;;
46491;SDS011;32206;51.446;6.792;2022-12-19T05:20:24;37.33;;;19.48;;
46491;SDS011;32206;51.446;6.792;2022-12-19T05:22:49;38.13;;;19.33;;
46491;SDS011;32206;51.446;6.792;2022-12-19T05:25:15;43.45;;;21.05;;
46491;SDS011;32206;51.446;6.792;2022-12-19T05:27:41;40.95;;;22.10;;
46491;SDS011;32206;51.446;6.792;2022-12-19T05:30:06;43.50;;;21.50;;
46491;SDS011;32206;51.446;6.792;2022-12-19T05:32:32;40.88;;;20.05;;
46491;SDS011;32206;51.446;6.792;2022-12-19T05:34:58;44.15;;;20.63;;
46491;SDS011;32206;51.446;6.792;2022-12-19T05:37:24;44.90;;;21.05;;
46491;SDS011;32206;51.446;6.792;2022-12-19T05:39:50;41.40;;;20.95;;
46491;SDS011;32206;51.446;6.792;2022-12-19T05:42:16;36.53;;;20.38;;
46491;SDS011;32206;51.446;6.792;2022-12-19T05:44:41;39.63;;;20.20;;
46491;SDS011;32206;51.446;6.792;2022-12-19T05:47:07;39.97;;;18.83;;
46491;SDS011;32206;51.446;6.792;2022-12-19T05:49:32;35.88;;;19.13;;
46491;SDS011;32206;51.446;6.792;2022-12-19T05:51:58;37.17;;;20.00;;
46491;SDS011;32206;51.446;6.792;2022-12-19T05:54:23;43.03;;;21.35;;
46491;SDS011;32206;51.446;6.792;2022-12-19T05:56:49;48.33;;;21.98;;
46491;SDS011;32206;51.446;6.792;2022-12-19T05:59:14;38.45;;;20.52;;
46491;SDS011;32206;51.446;6.792;2022-12-19T06:01:40;37.92;;;19.08;;
46491;SDS011;32206;51.446;6.792;2022-12-19T06:04:06;44.42;;;20.92;;
46491;SDS011;32206;51.446;6.792;2022-12-19T06:06:32;40.30;;;21.67;;
46491;SDS011;32206;51.446;6.792;2022-12-19T06:08:58;41.95;;;22.48;;
46491;SDS011;32206;51.446;6.792;2022-12-19T06:11:24;42.80;;;21.40;;
46491;SDS011;32206;51.446;6.792;2022-12-19T06:13:50;47.88;;;20.45;;
46491;SDS011;32206;51.446;6.792;2022-12-19T06:16:17;43.63;;;20.30;;
46491;SDS011;32206;51.446;6.792;2022-12-19T06:18:44;52.88;;;24.10;;
46491;SDS011;32206;51.446;6.792;2022-12-19T06:21:12;44.28;;;21.17;;
46491;SDS011;32206;51.446;6.792;2022-12-19T06:23:39;48.95;;;21.80;;
46491;SDS011;32206;51.446;6.792;2022-12-19T06:26:05;44.05;;;21.27;;
46491;SDS011;32206;51.446;6.792;2022-12-19T06:28:32;42.50;;;21.30;;
46491;SDS011;32206;51.446;6.792;2022-12-19T06:30:59;43.22;;;21.13;;
46491;SDS011;32206;51.446;6.792;2022-12-19T06:33:26;41.08;;;20.15;;
46491;SDS011;32206;51.446;6.792;2022-12-19T06:35:59;42.80;;;21.08;;
46491;SDS011;32206;51.446;6.792;2022-12-19T06:38:29;44.25;;;20.48;;
46491;SDS011;32206;51.446;6.792;2022-12-19T06:40:55;46.95;;;21.33;;
46491;SDS011;32206;51.446;6.792;2022-12-19T06:43:40;40.80;;;20.98;;
46491;SDS011;32206;51.446;6.792;2022-12-19T06:46:05;46.85;;;20.75;;
46491;SDS011;32206;51.446;6.792;2022-12-19T06:48:31;36.15;;;19.50;;
46491;SDS011;32206;51.446;6.792;2022-12-19T06:50:57;39.92;;;20.52;;
46491;SDS011;32206;51.446;6.792;2022-12-19T06:53:22;41.70;;;21.17;;
46491;SDS011;32206;51.446;6.792;2022-12-19T06:55:49;38.55;;;20.55;;
46491;SDS011;32206;51.446;6.792;2022-12-19T06:58:17;39.92;;;18.42;;
46491;SDS011;32206;51.446;6.792;2022-12-19T07:00:43;40.65;;;19.08;;
46491;SDS011;32206;51.446;6.792;2022-12-19T07:03:09;42.15;;;18.95;;
46491;SDS011;32206;51.446;6.792;2022-12-19T07:05:37;34.72;;;18.52;;
46491;SDS011;32206;51.446;6.792;2022-12-19T07:08:03;33.72;;;19.02;;
46491;SDS011;32206;51.446;6.792;2022-12-19T07:10:29;45.28;;;19.27;;
46491;SDS011;32206;51.446;6.792;2022-12-19T07:12:55;35.60;;;18.00;;
46491;SDS011;32206;51.446;6.792;2022-12-19T07:15:20;35.97;;;18.25;;
46491;SDS011;32206;51.446;6.792;2022-12-19T07:17:47;37.35;;;19.13;;
46491;SDS011;32206;51.446;6.792;2022-12-19T07:20:13;32.92;;;18.02;;
46491;SDS011;32206;51.446;6.792;2022-12-19T07:22:40;34.15;;;19.08;;
46491;SDS011;32206;51.446;6.792;2022-12-19T07:25:07;41.72;;;18.00;;
46491;SDS011;32206;51.446;6.792;2022-12-19T07:27:33;34.22;;;18.95;;
46491;SDS011;32206;51.446;6.792;2022-12-19T07:29:59;40.70;;;19.98;;
46491;SDS011;32206;51.446;6.792;2022-12-19T07:32:24;36.17;;;17.25;;
46491;SDS011;32206;51.446;6.792;2022-12-19T07:34:50;38.00;;;18.23;;
46491;SDS011;32206;51.446;6.792;2022-12-19T07:37:16;29.83;;;16.35;;
46491;SDS011;32206;51.446;6.792;2022-12-19T07:39:41;39.83;;;17.55;;
46491;SDS011;32206;51.446;6.792;2022-12-19T07:42:07;29.52;;;17.83;;
46491;SDS011;32206;51.446;6.792;2022-12-19T07:44:32;31.08;;;15.55;;
46491;SDS011;32206;51.446;6.792;2022-12-19T07:46:58;35.40;;;16.95;;
46491;SDS011;32206;51.446;6.792;2022-12-19T07:49:23;35.70;;;17.83;;
46491;SDS011;32206;51.446;6.792;2022-12-19T07:51:49;34.00;;;17.45;;
46491;SDS011;32206;51.446;6.792;2022-12-19T07:54:15;31.63;;;17.85;;
46491;SDS011;32206;51.446;6.792;2022-12-19T07:56:40;31.70;;;16.80;;
46491;SDS011;32206;51.446;6.792;2022-12-19T07:59:06;32.33;;;16.60;;
46491;SDS011;32206;51.446;6.792;2022-12-19T08:01:31;31.05;;;16.77;;
46491;SDS011;32206;51.446;6.792;2022-12-19T08:03:57;31.77;;;17.67;;
46491;SDS011;32206;51.446;6.792;2022-12-19T08:06:23;32.72;;;16.13;;
46491;SDS011;32206;51.446;6.792;2022-12-19T08:08:49;34.20;;;17.67;;
46491;SDS011;32206;51.446;6.792;2022-12-19T08:11:15;28.77;;;15.52;;
46491;SDS011;32206;51.446;6.792;2022-12-19T08:13:51;33.42;;;16.30;;
46491;SDS011;32206;51.446;6.792;2022-12-19T08:16:18;30.02;;;16.27;;
46491;SDS011;32206;51.446;6.792;2022-12-19T08:18:44;36.22;;;16.73;;
46491;SDS011;32206;51.446;6.792;2022-12-19T08:21:09;30.05;;;15.00;;
46491;SDS011;32206;51.446;6.792;2022-12-19T08:23:36;37.08;;;15.20;;
46491;SDS011;32206;51.446;6.792;2022-12-19T08:26:09;32.13;;;16.60;;
46491;SDS011;32206;51.446;6.792;2022-12-19T08:28:37;28.52;;;16.80;;
46491;SDS011;32206;51.446;6.792;2022-12-19T08:31:07;27.15;;;14.00;;
46491;SDS011;32206;51.446;6.792;2022-12-19T08:33:34;31.70;;;14.80;;
46491;SDS011;32206;51.446;6.792;2022-12-19T08:36:04;27.52;;;15.52;;
46491;SDS011;32206;51.446;6.792;2022-12-19T08:38:32;30.88;;;15.75;;
46491;SDS011;32206;51.446;6.792;2022-12-19T08:40:58;25.90;;;14.50;;
46491;SDS011;32206;51.446;6.792;2022-12-19T08:43:24;27.80;;;15.40;;
46491;SDS011;32206;51.446;6.792;2022-12-19T08:45:51;29.85;;;16.40;;
46491;SDS011;32206;51.446;6.792;2022-12-19T08:48:17;30.77;;;15.18;;
46491;SDS011;32206;51.446;6.792;2022-12-19T08:50:52;28.60;;;16.92;;
46491;SDS011;32206;51.446;6.792;2022-12-19T08:53:20;29.13;;;14.38;;
46491;SDS011;32206;51.446;6.792;2022-12-19T08:55:46;23.73;;;13.77;;
46491;SDS011;32206;51.446;6.792;2022-12-19T08:58:14;26.88;;;15.50;;
46491;SDS011;32206;51.446;6.792;2022-12-19T09:00:40;27.88;;;14.95;;
46491;SDS011;32206;51.446;6.792;2022-12-19T09:03:05;31.70;;;15.70;;
46491;SDS011;32206;51.446;6.792;2022-12-19T09:05:31;26.92;;;14.45;;
46491;SDS011;32206;51.446;6.792;2022-12-19T09:07:57;26.25;;;14.57;;
46491;SDS011;32206;51.446;6.792;2022-12-19T09:10:22;24.05;;;14.27;;
46491;SDS011;32206;51.446;6.792;2022-12-19T09:12:48;28.95;;;14.20;;
46491;SDS011;32206;51.446;6.792;2022-12-19T09:15:13;27.30;;;15.30;;
46491;SDS011;32206;51.446;6.792;2022-12-19T09:17:39;27.55;;;15.60;;
46491;SDS011;32206;51.446;6.792;2022-12-19T09:20:05;25.92;;;14.68;;
46491;SDS011;32206;51.446;6.792;2022-12-19T09:22:31;24.02;;;15.48;;
46491;SDS011;32206;51.446;6.792;2022-12-19T09:24:56;26.60;;;15.10;;
46491;SDS011;32206;51.446;6.792;2022-12-19T09:27:22;35.00;;;16.85;;
46491;SDS011;32206;51.446;6.792;2022-12-19T09:29:48;23.25;;;14.23;;
46491;SDS011;32206;51.446;6.792;2022-12-19T09:32:13;25.88;;;14.70;;
46491;SDS011;32206;51.446;6.792;2022-12-19T09:34:39;28.10;;;15.48;;
46491;SDS011;32206;51.446;6.792;2022-12-19T09:37:05;22.70;;;13.80;;
46491;SDS011;32206;51.446;6.792;2022-12-19T09:39:31;23.77;;;13.02;;
46491;SDS011;32206;51.446;6.792;2022-12-19T09:49:39;23.42;;;13.43;;
46491;SDS011;32206;51.446;6.792;2022-12-19T09:52:14;28.38;;;14.30;;
46491;SDS011;32206;51.446;6.792;2022-12-19T09:54:57;21.83;;;13.80;;
46491;SDS011;32206;51.446;6.792;2022-12-19T09:59:59;20.20;;;13.13;;
46491;SDS011;32206;51.446;6.792;2022-12-19T10:02:40;24.67;;;13.65;;
46491;SDS011;32206;51.446;6.792;2022-12-19T10:05:16;23.83;;;13.80;;
46491;SDS011;32206;51.446;6.792;2022-12-19T10:08:12;34.10;;;13.38;;
46491;SDS011;32206;51.446;6.792;2022-12-19T10:10:51;23.45;;;13.35;;
46491;SDS011;32206;51.446;6.792;2022-12-19T10:19:13;23.88;;;12.57;;
46491;SDS011;32206;51.446;6.792;2022-12-19T10:27:33;22.00;;;12.27;;
46491;SDS011;32206;51.446;6.792;2022-12-19T10:30:14;23.25;;;13.98;;
46491;SDS011;32206;51.446;6.792;2022-12-19T10:32:54;22.38;;;12.90;;
46491;SDS011;32206;51.446;6.792;2022-12-19T10:35:22;23.70;;;14.20;;
46491;SDS011;32206;51.446;6.792;2022-12-19T10:43:41;23.45;;;13.05;;
46491;SDS011;32206;51.446;6.792;2022-12-19T10:48:49;22.52;;;13.07;;
46491;SDS011;32206;51.446;6.792;2022-12-19T10:51:24;24.08;;;14.15;;
46491;SDS011;32206;51.446;6.792;2022-12-19T10:53:53;23.25;;;13.90;;
46491;SDS011;32206;51.446;6.792;2022-12-19T10:56:25;19.95;;;11.80;;
46491;SDS011;32206;51.446;6.792;2022-12-19T10:58:55;23.05;;;12.18;;
46491;SDS011;32206;51.446;6.792;2022-12-19T11:04:18;15.60;;;11.60;;
46491;SDS011;32206;51.446;6.792;2022-12-19T11:09:41;15.30;;;10.25;;
46491;SDS011;32206;51.446;6.792;2022-12-19T11:14:37;16.98;;;11.25;;
46491;SDS011;32206;51.446;6.792;2022-12-19T11:17:25;21.30;;;12.07;;
46491;SDS011;32206;51.446;6.792;2022-12-19T11:19:53;26.33;;;11.13;;
46491;SDS011;32206;51.446;6.792;2022-12-19T11:22:24;19.52;;;11.77;;
46491;SDS011;32206;51.446;6.792;2022-12-19T11:24:52;17.20;;;10.73;;
46491;SDS011;32206;51.446;6.792;2022-12-19T11:30:21;19.70;;;10.82;;
46491;SDS011;32206;51.446;6.792;2022-12-19T11:33:33;16.73;;;10.40;;
46491;SDS011;32206;51.446;6.792;2022-12-19T11:35:49;18.35;;;11.63;;
46491;SDS011;32206;51.446;6.792;2022-12-19T11:41:21;15.77;;;10.55;;
46491;SDS011;32206;51.446;6.792;2022-12-19T11:44:40;17.88;;;11.85;;
46491;SDS011;32206;51.446;6.792;2022-12-19T11:50:08;22.30;;;11.80;;
46491;SDS011;32206;51.446;6.792;2022-12-19T11:52:44;15.77;;;10.65;;
46491;SDS011;32206;51.446;6.792;2022-12-19T11:55:22;16.95;;;10.13;;
46491;SDS011;32206;51.446;6.792;2022-12-19T11:57:52;19.83;;;11.00;;
46491;SDS011;32206;51.446;6.792;2022-12-19T12:00:19;14.65;;;10.20;;
46491;SDS011;32206;51.446;6.792;2022-12-19T12:02:52;14.57;;;9.43;;
46491;SDS011;32206;51.446;6.792;2022-12-19T12:08:22;16.08;;;9.88;;
46491;SDS011;32206;51.446;6.792;2022-12-19T12:10:55;15.48;;;10.13;;
46491;SDS011;32206;51.446;6.792;2022-12-19T12:16:14;18.20;;;11.20;;
46491;SDS011;32206;51.446;6.792;2022-12-19T12:21:22;15.35;;;10.43;;
46491;SDS011;32206;51.446;6.792;2022-12-19T12:26:36;16.27;;;9.05;;
46491;SDS011;32206;51.446;6.792;2022-12-19T12:29:22;14.93;;;9.55;;
46491;SDS011;32206;51.446;6.792;2022-12-19T12:37:24;16.88;;;8.75;;
46491;SDS011;32206;51.446;6.792;2022-12-19T12:43:11;13.27;;;8.68;;
46491;SDS011;32206;51.446;6.792;2022-12-19T12:45:47;14.32;;;8.40;;
46491;SDS011;32206;51.446;6.792;2022-12-19T12:50:47;17.30;;;8.60;;
46491;SDS011;32206;51.446;6.792;2022-12-19T12:53:18;11.57;;;8.02;;
46491;SDS011;32206;51.446;6.792;2022-12-19T12:55:50;13.15;;;8.95;;
46491;SDS011;32206;51.446;6.792;2022-12-19T13:06:26;12.98;;;7.97;;
46491;SDS011;32206;51.446;6.792;2022-12-19T13:11:44;13.73;;;7.95;;
46491;SDS011;32206;51.446;6.792;2022-12-19T13:17:03;11.20;;;8.48;;
46491;SDS011;32206;51.446;6.792;2022-12-19T13:19:34;12.43;;;7.95;;
46491;SDS011;32206;51.446;6.792;2022-12-19T13:42:46;10.80;;;7.97;;
46491;SDS011;32206;51.446;6.792;2022-12-19T13:45:40;11.00;;;7.63;;
46491;SDS011;32206;51.446;6.792;2022-12-19T13:48:15;10.63;;;7.55;;
46491;SDS011;32206;51.446;6.792;2022-12-19T13:50:46;11.57;;;7.53;;
46491;SDS011;32206;51.446;6.792;2022-12-19T13:53:16;15.02;;;7.28;;
46491;SDS011;32206;51.446;6.792;2022-12-19T13:55:43;11.00;;;6.70;;
46491;SDS011;32206;51.446;6.792;2022-12-19T13:58:31;10.10;;;7.45;;
46491;SDS011;32206;51.446;6.792;2022-12-19T14:01:00;10.40;;;7.32;;
46491;SDS011;32206;51.446;6.792;2022-12-19T14:03:32;8.85;;;6.20;;
46491;SDS011;32206;51.446;6.792;2022-12-19T14:06:05;8.70;;;6.60;;
46491;SDS011;32206;51.446;6.792;2022-12-19T14:08:40;11.95;;;6.65;;
46491;SDS011;32206;51.446;6.792;2022-12-19T14:11:08;8.77;;;6.78;;
46491;SDS011;32206;51.446;6.792;2022-12-19T14:13:34;13.43;;;7.90;;
46491;SDS011;32206;51.446;6.792;2022-12-19T14:16:26;10.50;;;7.35;;
46491;SDS011;32206;51.446;6.792;2022-12-19T14:18:51;9.57;;;6.10;;
46491;SDS011;32206;51.446;6.792;2022-12-19T14:21:21;10.27;;;6.50;;
46491;SDS011;32206;51.446;6.792;2022-12-19T14:23:51;9.82;;;6.15;;
46491;SDS011;32206;51.446;6.792;2022-12-19T14:26:37;9.25;;;6.32;;
46491;SDS011;32206;51.446;6.792;2022-12-19T14:29:08;9.35;;;6.55;;
46491;SDS011;32206;51.446;6.792;2022-12-19T14:31:38;11.30;;;5.78;;
46491;SDS011;32206;51.446;6.792;2022-12-19T14:34:05;10.10;;;6.40;;
46491;SDS011;32206;51.446;6.792;2022-12-19T14:36:54;10.75;;;6.15;;
46491;SDS011;32206;51.446;6.792;2022-12-19T14:39:21;8.20;;;5.57;;
46491;SDS011;32206;51.446;6.792;2022-12-19T14:41:51;8.05;;;5.82;;
46491;SDS011;32206;51.446;6.792;2022-12-19T14:44:44;6.72;;;5.88;;
46491;SDS011;32206;51.446;6.792;2022-12-19T14:47:21;8.57;;;6.00;;
46491;SDS011;32206;51.446;6.792;2022-12-19T14:49:49;9.35;;;5.90;;
46491;SDS011;32206;51.446;6.792;2022-12-19T14:55:30;9.23;;;6.18;;
46491;SDS011;32206;51.446;6.792;2022-12-19T14:57:58;8.57;;;5.75;;
46491;SDS011;32206;51.446;6.792;2022-12-19T15:00:41;11.40;;;6.10;;
46491;SDS011;32206;51.446;6.792;2022-12-19T15:03:11;9.38;;;6.30;;
46491;SDS011;32206;51.446;6.792;2022-12-19T15:05:46;9.57;;;6.65;;
46491;SDS011;32206;51.446;6.792;2022-12-19T15:08:11;8.30;;;5.93;;
46491;SDS011;32206;51.446;6.792;2022-12-19T15:10:37;7.72;;;5.93;;
46491;SDS011;32206;51.446;6.792;2022-12-19T15:15:58;11.40;;;6.43;;
46491;SDS011;32206;51.446;6.792;2022-12-19T15:21:01;10.13;;;5.88;;
46491;SDS011;32206;51.446;6.792;2022-12-19T15:23:29;8.43;;;5.05;;
46491;SDS011;32206;51.446;6.792;2022-12-19T15:25:56;8.00;;;5.70;;
46491;SDS011;32206;51.446;6.792;2022-12-19T15:28:33;8.18;;;5.10;;
46491;SDS011;32206;51.446;6.792;2022-12-19T15:31:04;6.20;;;4.55;;
46491;SDS011;32206;51.446;6.792;2022-12-19T15:33:37;7.95;;;5.63;;
46491;SDS011;32206;51.446;6.792;2022-12-19T15:36:03;7.85;;;5.40;;
46491;SDS011;32206;51.446;6.792;2022-12-19T15:38:29;6.40;;;4.55;;
46491;SDS011;32206;51.446;6.792;2022-12-19T15:40:55;7.65;;;5.25;;
46491;SDS011;32206;51.446;6.792;2022-12-19T15:43:21;5.43;;;4.80;;
46491;SDS011;32206;51.446;6.792;2022-12-19T15:45:48;9.50;;;5.15;;
46491;SDS011;32206;51.446;6.792;2022-12-19T15:48:19;6.20;;;4.95;;
46491;SDS011;32206;51.446;6.792;2022-12-19T15:50:45;6.00;;;4.05;;
46491;SDS011;32206;51.446;6.792;2022-12-19T15:53:16;6.80;;;4.80;;
46491;SDS011;32206;51.446;6.792;2022-12-19T15:55:51;6.70;;;4.68;;
46491;SDS011;32206;51.446;6.792;2022-12-19T15:58:18;10.50;;;4.75;;
46491;SDS011;32206;51.446;6.792;2022-12-19T16:00:54;5.13;;;4.20;;
46491;SDS011;32206;51.446;6.792;2022-12-19T16:03:25;5.80;;;4.60;;
46491;SDS011;32206;51.446;6.792;2022-12-19T16:05:52;7.00;;;4.63;;
46491;SDS011;32206;51.446;6.792;2022-12-19T16:08:19;5.82;;;4.82;;
46491;SDS011;32206;51.446;6.792;2022-12-19T16:10:50;7.20;;;4.85;;
46491;SDS011;32206;51.446;6.792;2022-12-19T16:13:22;7.85;;;6.03;;
46491;SDS011;32206;51.446;6.792;2022-12-19T16:15:50;9.10;;;4.88;;
46491;SDS011;32206;51.446;6.792;2022-12-19T16:18:16;6.10;;;5.00;;
46491;SDS011;32206;51.446;6.792;2022-12-19T16:20:43;7.38;;;4.85;;
46491;SDS011;32206;51.446;6.792;2022-12-19T16:23:09;8.77;;;4.88;;
46491;SDS011;32206;51.446;6.792;2022-12-19T16:25:39;7.25;;;4.85;;
46491;SDS011;32206;51.446;6.792;2022-12-19T16:28:20;9.80;;;5.07;;
46491;SDS011;32206;51.446;6.792;2022-12-19T16:30:53;7.75;;;4.82;;
46491;SDS011;32206;51.446;6.792;2022-12-19T16:33:22;7.25;;;4.40;;
46491;SDS011;32206;51.446;6.792;2022-12-19T16:35:50;7.80;;;5.13;;
46491;SDS011;32206;51.446;6.792;2022-12-19T16:38:16;6.05;;;4.50;;
46491;SDS011;32206;51.446;6.792;2022-12-19T16:40:43;6.57;;;4.57;;
46491;SDS011;32206;51.446;6.792;2022-12-19T16:45:41;6.32;;;3.90;;
46491;SDS011;32206;51.446;6.792;2022-12-19T16:50:47;7.65;;;5.13;;
46491;SDS011;32206;51.446;6.792;2022-12-19T16:53:13;6.45;;;4.00;;
46491;SDS011;32206;51.446;6.792;2022-12-19T16:55:39;8.77;;;3.97;;
46491;SDS011;32206;51.446;6.792;2022-12-19T16:58:07;7.10;;;4.78;;
46491;SDS011;32206;51.446;6.792;2022-12-19T17:00:43;5.25;;;4.47;;
46491;SDS011;32206;51.446;6.792;2022-12-19T17:03:28;8.52;;;4.68;;
46491;SDS011;32206;51.446;6.792;2022-12-19T17:06:01;5.95;;;4.63;;
46491;SDS011;32206;51.446;6.792;2022-12-19T17:08:27;8.88;;;4.70;;
46491;SDS011;32206;51.446;6.792;2022-12-19T17:10:53;6.82;;;4.50;;
46491;SDS011;32206;51.446;6.792;2022-12-19T17:13:19;4.75;;;3.80;;
46491;SDS011;32206;51.446;6.792;2022-12-19T17:15:45;7.80;;;4.88;;
46491;SDS011;32206;51.446;6.792;2022-12-19T17:18:13;7.22;;;4.00;;